sensor_id;sensor_type;location;lat;lon;timestamp;P1;durP1;ratioP1;P2;durP2;ratioP2
15281;SDS011;7742;44.320;19.820;2023-01-28T00:00:07;36.57;;;33.87;;
15281;SDS011;7742;44.320;19.820;2023-01-28T00:02:35;38.28;;;35.38;;
15281;SDS011;7742;44.320;19.820;2023-01-28T00:05:03;38.53;;;35.63;;
15281;SDS011;7742;44.320;19.820;2023-01-28T00:07:31;40.80;;;37.50;;
15281;SDS011;7742;44.320;19.820;2023-01-28T00:09:58;40.42;;;37.15;;
15281;SDS011;7742;44.320;19.820;2023-01-28T00:12:25;36.55;;;33.65;;
15281;SDS011;7742;44.320;19.820;2023-01-28T00:14:53;36.63;;;33.83;;
15281;SDS011;7742;44.320;19.820;2023-01-28T00:17:22;35.97;;;33.35;;
15281;SDS011;7742;44.320;19.820;2023-01-28T00:19:50;37.13;;;34.20;;
15281;SDS011;7742;44.320;19.820;2023-01-28T00:22:17;35.30;;;32.60;;
15281;SDS011;7742;44.320;19.820;2023-01-28T00:24:45;34.88;;;32.17;;
15281;SDS011;7742;44.320;19.820;2023-01-28T00:27:12;34.25;;;31.65;;
15281;SDS011;7742;44.320;19.820;2023-01-28T00:29:39;35.22;;;32.58;;
15281;SDS011;7742;44.320;19.820;2023-01-28T00:32:06;34.97;;;32.25;;
15281;SDS011;7742;44.320;19.820;2023-01-28T00:34:35;34.38;;;31.77;;
15281;SDS011;7742;44.320;19.820;2023-01-28T00:37:02;34.03;;;31.30;;
15281;SDS011;7742;44.320;19.820;2023-01-28T00:39:29;35.45;;;32.75;;
15281;SDS011;7742;44.320;19.820;2023-01-28T00:41:56;35.30;;;32.63;;
15281;SDS011;7742;44.320;19.820;2023-01-28T00:44:23;37.08;;;34.17;;
15281;SDS011;7742;44.320;19.820;2023-01-28T00:46:52;36.30;;;33.50;;
15281;SDS011;7742;44.320;19.820;2023-01-28T00:49:19;36.63;;;33.88;;
15281;SDS011;7742;44.320;19.820;2023-01-28T00:51:48;36.53;;;33.78;;
15281;SDS011;7742;44.320;19.820;2023-01-28T00:54:15;36.75;;;33.95;;
15281;SDS011;7742;44.320;19.820;2023-01-28T00:56:42;36.75;;;33.95;;
15281;SDS011;7742;44.320;19.820;2023-01-28T00:59:10;32.85;;;30.45;;
15281;SDS011;7742;44.320;19.820;2023-01-28T01:01:38;34.92;;;32.22;;
15281;SDS011;7742;44.320;19.820;2023-01-28T01:04:05;35.00;;;32.30;;
15281;SDS011;7742;44.320;19.820;2023-01-28T01:06:33;35.05;;;32.45;;
15281;SDS011;7742;44.320;19.820;2023-01-28T01:09:03;33.80;;;31.40;;
15281;SDS011;7742;44.320;19.820;2023-01-28T01:11:33;33.47;;;30.88;;
15281;SDS011;7742;44.320;19.820;2023-01-28T01:14:05;34.13;;;31.63;;
15281;SDS011;7742;44.320;19.820;2023-01-28T01:16:33;34.35;;;31.75;;
15281;SDS011;7742;44.320;19.820;2023-01-28T01:19:11;34.80;;;32.25;;
15281;SDS011;7742;44.320;19.820;2023-01-28T01:21:38;33.38;;;30.88;;
15281;SDS011;7742;44.320;19.820;2023-01-28T01:24:07;31.13;;;28.92;;
15281;SDS011;7742;44.320;19.820;2023-01-28T01:26:35;32.25;;;29.83;;
15281;SDS011;7742;44.320;19.820;2023-01-28T01:29:08;32.00;;;29.75;;
15281;SDS011;7742;44.320;19.820;2023-01-28T01:31:35;31.08;;;28.85;;
15281;SDS011;7742;44.320;19.820;2023-01-28T01:34:03;32.13;;;29.83;;
15281;SDS011;7742;44.320;19.820;2023-01-28T01:36:33;31.38;;;29.08;;
15281;SDS011;7742;44.320;19.820;2023-01-28T01:39:00;32.25;;;29.85;;
15281;SDS011;7742;44.320;19.820;2023-01-28T01:41:35;32.03;;;29.73;;
15281;SDS011;7742;44.320;19.820;2023-01-28T01:44:02;33.00;;;30.60;;
15281;SDS011;7742;44.320;19.820;2023-01-28T01:46:32;31.05;;;28.65;;
15281;SDS011;7742;44.320;19.820;2023-01-28T01:49:08;30.48;;;28.20;;
15281;SDS011;7742;44.320;19.820;2023-01-28T01:51:39;29.20;;;27.10;;
15281;SDS011;7742;44.320;19.820;2023-01-28T01:54:07;29.90;;;27.77;;
15281;SDS011;7742;44.320;19.820;2023-01-28T01:56:37;29.50;;;27.45;;
15281;SDS011;7742;44.320;19.820;2023-01-28T01:59:07;29.48;;;27.38;;
15281;SDS011;7742;44.320;19.820;2023-01-28T02:01:36;29.80;;;27.60;;
15281;SDS011;7742;44.320;19.820;2023-01-28T02:04:04;31.10;;;28.83;;
15281;SDS011;7742;44.320;19.820;2023-01-28T02:06:37;32.92;;;30.48;;
15281;SDS011;7742;44.320;19.820;2023-01-28T02:09:06;31.17;;;28.98;;
15281;SDS011;7742;44.320;19.820;2023-01-28T02:11:47;31.58;;;29.27;;
15281;SDS011;7742;44.320;19.820;2023-01-28T02:14:16;30.30;;;28.20;;
15281;SDS011;7742;44.320;19.820;2023-01-28T02:17:00;31.25;;;29.15;;
15281;SDS011;7742;44.320;19.820;2023-01-28T02:19:32;31.38;;;28.98;;
15281;SDS011;7742;44.320;19.820;2023-01-28T02:22:10;32.13;;;29.83;;
15281;SDS011;7742;44.320;19.820;2023-01-28T02:24:53;32.53;;;30.10;;
15281;SDS011;7742;44.320;19.820;2023-01-28T02:28:03;32.50;;;30.13;;
15281;SDS011;7742;44.320;19.820;2023-01-28T02:30:47;32.05;;;29.55;;
15281;SDS011;7742;44.320;19.820;2023-01-28T02:33:19;33.15;;;30.65;;
15281;SDS011;7742;44.320;19.820;2023-01-28T02:35:52;34.25;;;31.55;;
15281;SDS011;7742;44.320;19.820;2023-01-28T02:38:22;33.15;;;30.65;;
15281;SDS011;7742;44.320;19.820;2023-01-28T02:40:52;35.38;;;32.63;;
15281;SDS011;7742;44.320;19.820;2023-01-28T02:43:33;34.03;;;31.33;;
15281;SDS011;7742;44.320;19.820;2023-01-28T02:46:02;32.58;;;30.17;;
15281;SDS011;7742;44.320;19.820;2023-01-28T02:48:55;34.70;;;32.00;;
15281;SDS011;7742;44.320;19.820;2023-01-28T02:51:24;33.83;;;31.23;;
15281;SDS011;7742;44.320;19.820;2023-01-28T02:53:59;33.60;;;31.10;;
15281;SDS011;7742;44.320;19.820;2023-01-28T02:56:31;33.17;;;30.67;;
15281;SDS011;7742;44.320;19.820;2023-01-28T02:59:05;32.40;;;29.90;;
15281;SDS011;7742;44.320;19.820;2023-01-28T03:01:52;31.98;;;29.60;;
15281;SDS011;7742;44.320;19.820;2023-01-28T03:04:23;32.17;;;29.77;;
15281;SDS011;7742;44.320;19.820;2023-01-28T03:06:56;32.10;;;29.70;;
15281;SDS011;7742;44.320;19.820;2023-01-28T03:09:24;31.52;;;29.13;;
15281;SDS011;7742;44.320;19.820;2023-01-28T03:11:53;31.85;;;29.48;;
15281;SDS011;7742;44.320;19.820;2023-01-28T03:14:40;30.40;;;28.20;;
15281;SDS011;7742;44.320;19.820;2023-01-28T03:17:26;29.67;;;27.53;;
15281;SDS011;7742;44.320;19.820;2023-01-28T03:20:13;30.23;;;28.02;;
15281;SDS011;7742;44.320;19.820;2023-01-28T03:23:00;29.65;;;27.55;;
15281;SDS011;7742;44.320;19.820;2023-01-28T03:25:49;29.02;;;27.02;;
15281;SDS011;7742;44.320;19.820;2023-01-28T03:28:34;29.00;;;26.98;;
15281;SDS011;7742;44.320;19.820;2023-01-28T03:31:22;31.30;;;29.08;;
15281;SDS011;7742;44.320;19.820;2023-01-28T03:34:07;33.03;;;30.60;;
15281;SDS011;7742;44.320;19.820;2023-01-28T03:36:51;34.42;;;31.63;;
15281;SDS011;7742;44.320;19.820;2023-01-28T03:39:20;33.40;;;30.73;;
15281;SDS011;7742;44.320;19.820;2023-01-28T03:41:55;33.25;;;30.65;;
15281;SDS011;7742;44.320;19.820;2023-01-28T03:44:26;34.83;;;31.92;;
15281;SDS011;7742;44.320;19.820;2023-01-28T03:47:12;32.33;;;29.80;;
15281;SDS011;7742;44.320;19.820;2023-01-28T03:49:40;33.78;;;31.08;;
15281;SDS011;7742;44.320;19.820;2023-01-28T03:52:09;32.03;;;29.60;;
15281;SDS011;7742;44.320;19.820;2023-01-28T03:54:37;33.72;;;31.13;;
15281;SDS011;7742;44.320;19.820;2023-01-28T03:57:04;34.33;;;31.63;;
15281;SDS011;7742;44.320;19.820;2023-01-28T03:59:32;35.13;;;32.33;;
15281;SDS011;7742;44.320;19.820;2023-01-28T04:02:00;35.13;;;32.33;;
15281;SDS011;7742;44.320;19.820;2023-01-28T04:07:14;37.13;;;34.13;;
15281;SDS011;7742;44.320;19.820;2023-01-28T04:09:41;37.15;;;34.15;;
15281;SDS011;7742;44.320;19.820;2023-01-28T04:12:11;39.20;;;35.80;;
15281;SDS011;7742;44.320;19.820;2023-01-28T04:14:39;38.08;;;34.90;;
15281;SDS011;7742;44.320;19.820;2023-01-28T04:17:06;38.38;;;35.28;;
15281;SDS011;7742;44.320;19.820;2023-01-28T04:19:35;39.65;;;36.35;;
15281;SDS011;7742;44.320;19.820;2023-01-28T04:22:05;40.60;;;37.20;;
15281;SDS011;7742;44.320;19.820;2023-01-28T04:24:33;40.03;;;36.63;;
15281;SDS011;7742;44.320;19.820;2023-01-28T04:27:00;41.05;;;37.65;;
15281;SDS011;7742;44.320;19.820;2023-01-28T04:29:27;41.00;;;37.50;;
15281;SDS011;7742;44.320;19.820;2023-01-28T04:31:55;42.20;;;38.50;;
15281;SDS011;7742;44.320;19.820;2023-01-28T04:34:22;40.97;;;37.38;;
15281;SDS011;7742;44.320;19.820;2023-01-28T04:36:50;43.45;;;39.75;;
15281;SDS011;7742;44.320;19.820;2023-01-28T04:39:18;41.88;;;38.20;;
15281;SDS011;7742;44.320;19.820;2023-01-28T04:41:45;43.13;;;39.35;;
15281;SDS011;7742;44.320;19.820;2023-01-28T04:44:13;43.85;;;39.95;;
15281;SDS011;7742;44.320;19.820;2023-01-28T04:46:41;42.70;;;38.85;;
15281;SDS011;7742;44.320;19.820;2023-01-28T04:49:08;44.70;;;40.85;;
15281;SDS011;7742;44.320;19.820;2023-01-28T04:51:35;44.47;;;40.40;;
15281;SDS011;7742;44.320;19.820;2023-01-28T04:54:02;44.80;;;40.60;;
15281;SDS011;7742;44.320;19.820;2023-01-28T04:56:31;44.22;;;40.00;;
15281;SDS011;7742;44.320;19.820;2023-01-28T04:58:58;45.08;;;40.78;;
15281;SDS011;7742;44.320;19.820;2023-01-28T05:01:26;46.03;;;41.63;;
15281;SDS011;7742;44.320;19.820;2023-01-28T05:03:53;46.80;;;42.30;;
15281;SDS011;7742;44.320;19.820;2023-01-28T05:06:20;45.38;;;40.90;;
15281;SDS011;7742;44.320;19.820;2023-01-28T05:08:47;49.97;;;45.03;;
15281;SDS011;7742;44.320;19.820;2023-01-28T05:11:14;47.90;;;43.25;;
15281;SDS011;7742;44.320;19.820;2023-01-28T05:13:43;50.00;;;45.00;;
15281;SDS011;7742;44.320;19.820;2023-01-28T05:16:10;46.20;;;41.67;;
15281;SDS011;7742;44.320;19.820;2023-01-28T05:18:37;48.15;;;43.40;;
15281;SDS011;7742;44.320;19.820;2023-01-28T05:21:05;47.15;;;42.58;;
15281;SDS011;7742;44.320;19.820;2023-01-28T05:23:32;47.83;;;43.03;;
15281;SDS011;7742;44.320;19.820;2023-01-28T05:25:59;45.38;;;41.00;;
15281;SDS011;7742;44.320;19.820;2023-01-28T05:28:26;46.50;;;42.03;;
15281;SDS011;7742;44.320;19.820;2023-01-28T05:30:55;46.72;;;42.13;;
15281;SDS011;7742;44.320;19.820;2023-01-28T05:33:22;45.22;;;40.80;;
15281;SDS011;7742;44.320;19.820;2023-01-28T05:35:49;45.10;;;40.90;;
15281;SDS011;7742;44.320;19.820;2023-01-28T05:38:16;47.80;;;43.10;;
15281;SDS011;7742;44.320;19.820;2023-01-28T05:40:43;47.30;;;42.80;;
15281;SDS011;7742;44.320;19.820;2023-01-28T05:43:10;45.72;;;41.25;;
15281;SDS011;7742;44.320;19.820;2023-01-28T05:45:38;51.70;;;46.40;;
15281;SDS011;7742;44.320;19.820;2023-01-28T05:48:06;53.42;;;47.72;;
15281;SDS011;7742;44.320;19.820;2023-01-28T05:50:33;53.77;;;47.87;;
15281;SDS011;7742;44.320;19.820;2023-01-28T05:53:03;56.30;;;48.87;;
15281;SDS011;7742;44.320;19.820;2023-01-28T05:55:31;57.83;;;49.63;;
15281;SDS011;7742;44.320;19.820;2023-01-28T05:57:58;54.67;;;48.83;;
15281;SDS011;7742;44.320;19.820;2023-01-28T06:00:25;57.75;;;49.95;;
15281;SDS011;7742;44.320;19.820;2023-01-28T06:02:52;49.22;;;44.03;;
15281;SDS011;7742;44.320;19.820;2023-01-28T06:05:21;52.90;;;47.28;;
15281;SDS011;7742;44.320;19.820;2023-01-28T06:07:48;52.65;;;46.97;;
15281;SDS011;7742;44.320;19.820;2023-01-28T06:10:15;55.08;;;49.15;;
15281;SDS011;7742;44.320;19.820;2023-01-28T06:12:43;62.05;;;52.80;;
15281;SDS011;7742;44.320;19.820;2023-01-28T06:15:10;57.63;;;49.47;;
15281;SDS011;7742;44.320;19.820;2023-01-28T06:17:37;53.72;;;47.00;;
15281;SDS011;7742;44.320;19.820;2023-01-28T06:20:05;57.10;;;47.35;;
15281;SDS011;7742;44.320;19.820;2023-01-28T06:22:35;55.90;;;47.80;;
15281;SDS011;7742;44.320;19.820;2023-01-28T06:25:02;63.08;;;49.00;;
15281;SDS011;7742;44.320;19.820;2023-01-28T06:27:30;56.67;;;48.47;;
15281;SDS011;7742;44.320;19.820;2023-01-28T06:29:57;54.67;;;46.00;;
15281;SDS011;7742;44.320;19.820;2023-01-28T06:32:24;58.28;;;48.15;;
15281;SDS011;7742;44.320;19.820;2023-01-28T06:34:51;65.78;;;51.70;;
15281;SDS011;7742;44.320;19.820;2023-01-28T06:37:19;59.33;;;49.72;;
15281;SDS011;7742;44.320;19.820;2023-01-28T06:39:47;62.95;;;51.03;;
15281;SDS011;7742;44.320;19.820;2023-01-28T06:42:14;66.43;;;51.95;;
15281;SDS011;7742;44.320;19.820;2023-01-28T06:44:42;67.32;;;50.10;;
15281;SDS011;7742;44.320;19.820;2023-01-28T06:47:09;59.60;;;48.15;;
15281;SDS011;7742;44.320;19.820;2023-01-28T06:49:36;56.88;;;47.42;;
15281;SDS011;7742;44.320;19.820;2023-01-28T06:52:03;56.90;;;47.15;;
15281;SDS011;7742;44.320;19.820;2023-01-28T06:54:30;61.33;;;49.63;;
15281;SDS011;7742;44.320;19.820;2023-01-28T06:56:59;57.65;;;46.05;;
15281;SDS011;7742;44.320;19.820;2023-01-28T06:59:26;52.08;;;43.45;;
15281;SDS011;7742;44.320;19.820;2023-01-28T07:01:53;47.95;;;42.05;;
15281;SDS011;7742;44.320;19.820;2023-01-28T07:04:21;55.13;;;47.42;;
15281;SDS011;7742;44.320;19.820;2023-01-28T07:06:48;51.70;;;46.05;;
15281;SDS011;7742;44.320;19.820;2023-01-28T07:09:15;50.03;;;43.83;;
15281;SDS011;7742;44.320;19.820;2023-01-28T07:11:42;47.13;;;42.03;;
15281;SDS011;7742;44.320;19.820;2023-01-28T07:14:11;50.73;;;45.23;;
15281;SDS011;7742;44.320;19.820;2023-01-28T07:16:38;48.45;;;43.47;;
15281;SDS011;7742;44.320;19.820;2023-01-28T07:19:05;49.42;;;44.10;;
15281;SDS011;7742;44.320;19.820;2023-01-28T07:21:32;49.33;;;44.03;;
15281;SDS011;7742;44.320;19.820;2023-01-28T07:23:59;45.92;;;41.17;;
15281;SDS011;7742;44.320;19.820;2023-01-28T07:26:29;43.58;;;39.13;;
15281;SDS011;7742;44.320;19.820;2023-01-28T07:28:56;46.25;;;41.65;;
15281;SDS011;7742;44.320;19.820;2023-01-28T07:31:25;47.60;;;42.70;;
15281;SDS011;7742;44.320;19.820;2023-01-28T07:33:53;49.88;;;44.88;;
15281;SDS011;7742;44.320;19.820;2023-01-28T07:36:20;50.28;;;44.97;;
15281;SDS011;7742;44.320;19.820;2023-01-28T07:38:47;48.78;;;43.65;;
15281;SDS011;7742;44.320;19.820;2023-01-28T07:41:14;46.72;;;41.92;;
15281;SDS011;7742;44.320;19.820;2023-01-28T07:43:41;48.50;;;43.40;;
15281;SDS011;7742;44.320;19.820;2023-01-28T07:46:08;47.72;;;42.72;;
15281;SDS011;7742;44.320;19.820;2023-01-28T07:48:37;50.08;;;44.58;;
15281;SDS011;7742;44.320;19.820;2023-01-28T07:51:04;48.25;;;42.95;;
15281;SDS011;7742;44.320;19.820;2023-01-28T07:53:31;49.00;;;43.70;;
15281;SDS011;7742;44.320;19.820;2023-01-28T07:55:59;48.08;;;42.80;;
15281;SDS011;7742;44.320;19.820;2023-01-28T07:58:26;48.35;;;42.90;;
15281;SDS011;7742;44.320;19.820;2023-01-28T08:00:55;48.25;;;42.78;;
15281;SDS011;7742;44.320;19.820;2023-01-28T08:03:23;45.90;;;40.88;;
15281;SDS011;7742;44.320;19.820;2023-01-28T08:05:52;46.00;;;40.75;;
15281;SDS011;7742;44.320;19.820;2023-01-28T08:08:20;44.97;;;40.28;;
15281;SDS011;7742;44.320;19.820;2023-01-28T08:10:48;46.28;;;41.38;;
15281;SDS011;7742;44.320;19.820;2023-01-28T08:13:16;44.47;;;39.67;;
15281;SDS011;7742;44.320;19.820;2023-01-28T08:15:44;44.90;;;40.30;;
15281;SDS011;7742;44.320;19.820;2023-01-28T08:18:12;44.05;;;39.35;;
15281;SDS011;7742;44.320;19.820;2023-01-28T08:20:40;44.47;;;39.88;;
15281;SDS011;7742;44.320;19.820;2023-01-28T08:23:12;44.35;;;39.65;;
15281;SDS011;7742;44.320;19.820;2023-01-28T08:25:40;43.08;;;38.67;;
15281;SDS011;7742;44.320;19.820;2023-01-28T08:28:07;40.75;;;36.72;;
15281;SDS011;7742;44.320;19.820;2023-01-28T08:30:35;39.05;;;34.90;;
15281;SDS011;7742;44.320;19.820;2023-01-28T08:33:03;38.88;;;34.70;;
15281;SDS011;7742;44.320;19.820;2023-01-28T08:35:31;40.85;;;36.63;;
15281;SDS011;7742;44.320;19.820;2023-01-28T08:37:59;39.10;;;35.20;;
15281;SDS011;7742;44.320;19.820;2023-01-28T08:40:28;39.92;;;35.85;;
15281;SDS011;7742;44.320;19.820;2023-01-28T08:42:55;40.05;;;36.00;;
15281;SDS011;7742;44.320;19.820;2023-01-28T08:45:23;39.30;;;35.38;;
15281;SDS011;7742;44.320;19.820;2023-01-28T08:47:52;37.28;;;33.58;;
15281;SDS011;7742;44.320;19.820;2023-01-28T08:50:21;38.50;;;34.60;;
15281;SDS011;7742;44.320;19.820;2023-01-28T08:52:53;39.88;;;35.95;;
15281;SDS011;7742;44.320;19.820;2023-01-28T08:55:21;40.47;;;36.58;;
15281;SDS011;7742;44.320;19.820;2023-01-28T08:57:50;39.80;;;35.80;;
15281;SDS011;7742;44.320;19.820;2023-01-28T09:00:17;38.63;;;34.67;;
15281;SDS011;7742;44.320;19.820;2023-01-28T09:02:45;37.38;;;33.78;;
15281;SDS011;7742;44.320;19.820;2023-01-28T09:05:12;38.38;;;34.63;;
15281;SDS011;7742;44.320;19.820;2023-01-28T09:07:40;39.88;;;35.72;;
15281;SDS011;7742;44.320;19.820;2023-01-28T09:10:07;40.10;;;36.10;;
15281;SDS011;7742;44.320;19.820;2023-01-28T09:12:35;42.47;;;38.10;;
15281;SDS011;7742;44.320;19.820;2023-01-28T09:15:05;42.13;;;37.55;;
15281;SDS011;7742;44.320;19.820;2023-01-28T09:17:33;41.13;;;37.08;;
15281;SDS011;7742;44.320;19.820;2023-01-28T09:20:00;39.28;;;35.20;;
15281;SDS011;7742;44.320;19.820;2023-01-28T09:22:28;38.70;;;34.60;;
15281;SDS011;7742;44.320;19.820;2023-01-28T09:24:56;36.08;;;32.25;;
15281;SDS011;7742;44.320;19.820;2023-01-28T09:27:23;36.60;;;32.78;;
15281;SDS011;7742;44.320;19.820;2023-01-28T09:29:50;37.65;;;33.75;;
15281;SDS011;7742;44.320;19.820;2023-01-28T09:32:19;36.38;;;32.65;;
15281;SDS011;7742;44.320;19.820;2023-01-28T09:34:46;35.53;;;32.03;;
15281;SDS011;7742;44.320;19.820;2023-01-28T09:37:13;37.03;;;33.40;;
15281;SDS011;7742;44.320;19.820;2023-01-28T09:39:42;37.33;;;33.78;;
15281;SDS011;7742;44.320;19.820;2023-01-28T09:42:22;36.13;;;32.63;;
15281;SDS011;7742;44.320;19.820;2023-01-28T09:45:05;38.15;;;34.53;;
15281;SDS011;7742;44.320;19.820;2023-01-28T09:47:41;35.80;;;32.40;;
15281;SDS011;7742;44.320;19.820;2023-01-28T09:50:14;36.90;;;33.40;;
15281;SDS011;7742;44.320;19.820;2023-01-28T09:52:44;35.47;;;32.10;;
15281;SDS011;7742;44.320;19.820;2023-01-28T09:55:14;38.30;;;34.65;;
15281;SDS011;7742;44.320;19.820;2023-01-28T09:57:44;34.85;;;31.55;;
15281;SDS011;7742;44.320;19.820;2023-01-28T10:00:14;34.75;;;31.45;;
15281;SDS011;7742;44.320;19.820;2023-01-28T10:02:52;34.28;;;31.02;;
15281;SDS011;7742;44.320;19.820;2023-01-28T10:05:27;35.33;;;32.13;;
15281;SDS011;7742;44.320;19.820;2023-01-28T10:08:00;35.67;;;32.47;;
15281;SDS011;7742;44.320;19.820;2023-01-28T10:10:38;35.58;;;32.42;;
15281;SDS011;7742;44.320;19.820;2023-01-28T10:13:19;35.67;;;32.47;;
15281;SDS011;7742;44.320;19.820;2023-01-28T10:18:52;33.28;;;30.48;;
15281;SDS011;7742;44.320;19.820;2023-01-28T10:21:22;35.83;;;32.72;;
15281;SDS011;7742;44.320;19.820;2023-01-28T10:23:55;34.50;;;31.43;;
15281;SDS011;7742;44.320;19.820;2023-01-28T10:26:26;34.97;;;31.77;;
15281;SDS011;7742;44.320;19.820;2023-01-28T10:28:59;34.95;;;31.85;;
15281;SDS011;7742;44.320;19.820;2023-01-28T10:31:33;34.70;;;31.52;;
15281;SDS011;7742;44.320;19.820;2023-01-28T10:34:08;35.47;;;32.38;;
15281;SDS011;7742;44.320;19.820;2023-01-28T10:36:36;36.00;;;32.67;;
15281;SDS011;7742;44.320;19.820;2023-01-28T10:39:04;34.83;;;31.63;;
15281;SDS011;7742;44.320;19.820;2023-01-28T10:41:33;34.75;;;31.65;;
15281;SDS011;7742;44.320;19.820;2023-01-28T10:44:00;35.07;;;31.93;;
15281;SDS011;7742;44.320;19.820;2023-01-28T10:46:28;35.00;;;31.92;;
15281;SDS011;7742;44.320;19.820;2023-01-28T10:49:00;36.38;;;33.08;;
15281;SDS011;7742;44.320;19.820;2023-01-28T10:51:32;34.45;;;31.45;;
15281;SDS011;7742;44.320;19.820;2023-01-28T10:54:00;35.08;;;32.05;;
15281;SDS011;7742;44.320;19.820;2023-01-28T10:56:29;33.87;;;30.97;;
15281;SDS011;7742;44.320;19.820;2023-01-28T10:58:59;33.72;;;30.92;;
15281;SDS011;7742;44.320;19.820;2023-01-28T11:01:40;34.25;;;31.25;;
15281;SDS011;7742;44.320;19.820;2023-01-28T11:04:14;33.05;;;30.33;;
15281;SDS011;7742;44.320;19.820;2023-01-28T11:06:52;35.03;;;32.05;;
15281;SDS011;7742;44.320;19.820;2023-01-28T11:09:22;33.75;;;30.77;;
15281;SDS011;7742;44.320;19.820;2023-01-28T11:11:50;33.27;;;30.47;;
15281;SDS011;7742;44.320;19.820;2023-01-28T11:14:21;33.37;;;30.63;;
15281;SDS011;7742;44.320;19.820;2023-01-28T11:16:50;32.75;;;30.15;;
15281;SDS011;7742;44.320;19.820;2023-01-28T11:19:18;32.78;;;30.17;;
15281;SDS011;7742;44.320;19.820;2023-01-28T11:21:48;32.83;;;30.20;;
15281;SDS011;7742;44.320;19.820;2023-01-28T11:24:20;34.10;;;31.38;;
15281;SDS011;7742;44.320;19.820;2023-01-28T11:26:48;32.75;;;30.13;;
15281;SDS011;7742;44.320;19.820;2023-01-28T11:29:20;30.80;;;28.27;;
15281;SDS011;7742;44.320;19.820;2023-01-28T11:31:49;31.60;;;29.00;;
15281;SDS011;7742;44.320;19.820;2023-01-28T11:34:16;32.33;;;29.73;;
15281;SDS011;7742;44.320;19.820;2023-01-28T11:36:52;33.13;;;30.53;;
15281;SDS011;7742;44.320;19.820;2023-01-28T11:39:21;33.55;;;30.77;;
15281;SDS011;7742;44.320;19.820;2023-01-28T11:41:51;33.92;;;31.17;;
15281;SDS011;7742;44.320;19.820;2023-01-28T11:44:20;33.22;;;30.52;;
15281;SDS011;7742;44.320;19.820;2023-01-28T11:46:52;32.47;;;29.88;;
15281;SDS011;7742;44.320;19.820;2023-01-28T11:49:27;34.35;;;31.65;;
15281;SDS011;7742;44.320;19.820;2023-01-28T11:52:04;33.40;;;30.70;;
15281;SDS011;7742;44.320;19.820;2023-01-28T11:54:41;33.28;;;30.67;;
15281;SDS011;7742;44.320;19.820;2023-01-28T11:57:20;34.17;;;31.38;;
15281;SDS011;7742;44.320;19.820;2023-01-28T12:02:52;34.85;;;31.85;;
15281;SDS011;7742;44.320;19.820;2023-01-28T12:08:16;35.53;;;32.53;;
15281;SDS011;7742;44.320;19.820;2023-01-28T12:10:52;35.08;;;32.15;;
15281;SDS011;7742;44.320;19.820;2023-01-28T12:13:47;33.88;;;31.08;;
15281;SDS011;7742;44.320;19.820;2023-01-28T12:16:35;34.13;;;31.43;;
15281;SDS011;7742;44.320;19.820;2023-01-28T12:19:27;36.42;;;33.42;;
15281;SDS011;7742;44.320;19.820;2023-01-28T12:22:13;36.10;;;33.10;;
15281;SDS011;7742;44.320;19.820;2023-01-28T12:24:54;35.90;;;32.90;;
15281;SDS011;7742;44.320;19.820;2023-01-28T12:27:32;54.78;;;49.67;;
15281;SDS011;7742;44.320;19.820;2023-01-28T12:30:06;38.37;;;35.03;;
15281;SDS011;7742;44.320;19.820;2023-01-28T12:32:45;38.80;;;35.47;;
15281;SDS011;7742;44.320;19.820;2023-01-28T12:35:23;38.38;;;35.05;;
15281;SDS011;7742;44.320;19.820;2023-01-28T12:38:03;38.15;;;34.95;;
15281;SDS011;7742;44.320;19.820;2023-01-28T12:40:47;40.10;;;36.58;;
15281;SDS011;7742;44.320;19.820;2023-01-28T12:43:20;40.22;;;36.72;;
15281;SDS011;7742;44.320;19.820;2023-01-28T12:45:53;38.83;;;35.33;;
15281;SDS011;7742;44.320;19.820;2023-01-28T12:48:23;46.42;;;42.25;;
15281;SDS011;7742;44.320;19.820;2023-01-28T12:50:55;40.53;;;36.72;;
15281;SDS011;7742;44.320;19.820;2023-01-28T12:53:25;41.97;;;38.07;;
15281;SDS011;7742;44.320;19.820;2023-01-28T12:55:58;40.33;;;36.70;;
15281;SDS011;7742;44.320;19.820;2023-01-28T12:58:34;39.00;;;35.65;;
15281;SDS011;7742;44.320;19.820;2023-01-28T13:01:06;40.60;;;37.07;;
15281;SDS011;7742;44.320;19.820;2023-01-28T13:03:39;39.78;;;36.15;;
15281;SDS011;7742;44.320;19.820;2023-01-28T13:06:11;40.78;;;37.03;;
15281;SDS011;7742;44.320;19.820;2023-01-28T13:08:40;41.60;;;37.78;;
15281;SDS011;7742;44.320;19.820;2023-01-28T13:11:11;38.67;;;35.07;;
15281;SDS011;7742;44.320;19.820;2023-01-28T13:13:41;41.60;;;37.65;;
15281;SDS011;7742;44.320;19.820;2023-01-28T13:16:09;40.72;;;36.97;;
15281;SDS011;7742;44.320;19.820;2023-01-28T13:18:43;39.95;;;36.35;;
15281;SDS011;7742;44.320;19.820;2023-01-28T13:21:13;40.00;;;36.25;;
15281;SDS011;7742;44.320;19.820;2023-01-28T13:23:43;38.55;;;35.00;;
15281;SDS011;7742;44.320;19.820;2023-01-28T13:29:16;39.13;;;35.55;;
15281;SDS011;7742;44.320;19.820;2023-01-28T13:31:55;38.45;;;35.05;;
15281;SDS011;7742;44.320;19.820;2023-01-28T13:34:26;36.90;;;33.65;;
15281;SDS011;7742;44.320;19.820;2023-01-28T13:36:58;36.28;;;32.97;;
15281;SDS011;7742;44.320;19.820;2023-01-28T13:39:27;35.63;;;32.58;;
15281;SDS011;7742;44.320;19.820;2023-01-28T13:42:07;36.85;;;33.63;;
15281;SDS011;7742;44.320;19.820;2023-01-28T13:44:36;37.63;;;34.53;;
15281;SDS011;7742;44.320;19.820;2023-01-28T13:47:14;36.33;;;33.33;;
15281;SDS011;7742;44.320;19.820;2023-01-28T13:49:46;37.08;;;33.92;;
15281;SDS011;7742;44.320;19.820;2023-01-28T13:52:15;37.03;;;33.92;;
15281;SDS011;7742;44.320;19.820;2023-01-28T13:54:44;36.80;;;33.67;;
15281;SDS011;7742;44.320;19.820;2023-01-28T13:57:32;36.97;;;33.67;;
15281;SDS011;7742;44.320;19.820;2023-01-28T14:00:12;38.77;;;35.30;;
15281;SDS011;7742;44.320;19.820;2023-01-28T14:02:59;40.78;;;37.28;;
15281;SDS011;7742;44.320;19.820;2023-01-28T14:08:38;39.15;;;35.65;;
15281;SDS011;7742;44.320;19.820;2023-01-28T14:11:27;39.33;;;35.78;;
15281;SDS011;7742;44.320;19.820;2023-01-28T14:14:29;39.38;;;35.83;;
15281;SDS011;7742;44.320;19.820;2023-01-28T14:17:06;39.13;;;35.42;;
15281;SDS011;7742;44.320;19.820;2023-01-28T14:19:41;39.42;;;35.60;;
15281;SDS011;7742;44.320;19.820;2023-01-28T14:22:12;40.33;;;36.60;;
15281;SDS011;7742;44.320;19.820;2023-01-28T14:24:44;42.13;;;38.00;;
15281;SDS011;7742;44.320;19.820;2023-01-28T14:27:12;43.75;;;39.28;;
15281;SDS011;7742;44.320;19.820;2023-01-28T14:29:45;45.38;;;40.95;;
15281;SDS011;7742;44.320;19.820;2023-01-28T14:32:16;44.83;;;40.22;;
15281;SDS011;7742;44.320;19.820;2023-01-28T14:34:45;46.90;;;42.22;;
15281;SDS011;7742;44.320;19.820;2023-01-28T14:37:13;46.37;;;41.60;;
15281;SDS011;7742;44.320;19.820;2023-01-28T14:39:42;46.70;;;42.00;;
15281;SDS011;7742;44.320;19.820;2023-01-28T14:42:13;48.65;;;43.70;;
15281;SDS011;7742;44.320;19.820;2023-01-28T14:44:46;49.72;;;44.33;;
15281;SDS011;7742;44.320;19.820;2023-01-28T14:47:19;48.60;;;43.50;;
15281;SDS011;7742;44.320;19.820;2023-01-28T14:49:59;49.85;;;44.47;;
15281;SDS011;7742;44.320;19.820;2023-01-28T14:55:39;48.43;;;43.27;;
15281;SDS011;7742;44.320;19.820;2023-01-28T14:58:11;52.78;;;47.25;;
15281;SDS011;7742;44.320;19.820;2023-01-28T15:00:51;54.80;;;48.90;;
15281;SDS011;7742;44.320;19.820;2023-01-28T15:03:19;49.15;;;43.90;;